Riceville, Tennessee
Current Conditions -  °F | °C
As of 6:15 PM on Wednesday 22 Oct 2014 (Local Time) from KMMI Reporting Station
Clear Clear  
Wind Chill: 57°   Ceiling: Unl
Heat Index: 57°   Visibility: 10mi
Dew Point: 39°   Wind: 6mph
Humidity: 51%   Direction: 50°NE
Pressure: 30.17"   Gusts: NA
Location:  35.38°N, 84.69°W
Report Text: KMMI 222215Z AUTO 05005KT 10SM CLR 14/04 A3017 RMK
Loading
Personal Weather Stations






























Interactive Weather Map
Tropical Storm Tracking
New forecast layout! Learn more

10-Day Weather Forecast

Advertisements
Track Severe Weather on mobile